sensor_id;sensor_type;location;lat;lon;timestamp;P1;durP1;ratioP1;P2;durP2;ratioP2
12441;SDS011;6285;48.804;9.220;2023-09-08T00:01:20;8.98;;;7.78;;
12441;SDS011;6285;48.804;9.220;2023-09-08T00:03:47;11.00;;;8.70;;
12441;SDS011;6285;48.804;9.220;2023-09-08T00:06:15;9.45;;;8.40;;
12441;SDS011;6285;48.804;9.220;2023-09-08T00:08:42;9.10;;;8.00;;
12441;SDS011;6285;48.804;9.220;2023-09-08T00:11:09;9.18;;;8.27;;
12441;SDS011;6285;48.804;9.220;2023-09-08T00:13:37;11.50;;;8.60;;
12441;SDS011;6285;48.804;9.220;2023-09-08T00:16:04;11.20;;;8.15;;
12441;SDS011;6285;48.804;9.220;2023-09-08T00:18:33;10.82;;;8.35;;
12441;SDS011;6285;48.804;9.220;2023-09-08T00:21:00;10.30;;;8.40;;
12441;SDS011;6285;48.804;9.220;2023-09-08T00:23:28;13.05;;;9.88;;
12441;SDS011;6285;48.804;9.220;2023-09-08T00:25:55;12.90;;;10.13;;
12441;SDS011;6285;48.804;9.220;2023-09-08T00:28:23;13.02;;;9.25;;
12441;SDS011;6285;48.804;9.220;2023-09-08T00:30:50;13.18;;;9.52;;
12441;SDS011;6285;48.804;9.220;2023-09-08T00:33:18;12.07;;;9.52;;
12441;SDS011;6285;48.804;9.220;2023-09-08T00:35:45;11.05;;;9.48;;
12441;SDS011;6285;48.804;9.220;2023-09-08T00:38:15;13.00;;;9.43;;
12441;SDS011;6285;48.804;9.220;2023-09-08T00:40:43;11.80;;;10.07;;
12441;SDS011;6285;48.804;9.220;2023-09-08T00:43:10;13.52;;;9.90;;
12441;SDS011;6285;48.804;9.220;2023-09-08T00:45:38;11.38;;;10.05;;
12441;SDS011;6285;48.804;9.220;2023-09-08T00:48:06;12.82;;;10.10;;
12441;SDS011;6285;48.804;9.220;2023-09-08T00:50:33;12.38;;;9.68;;
12441;SDS011;6285;48.804;9.220;2023-09-08T00:53:01;11.73;;;9.60;;
12441;SDS011;6285;48.804;9.220;2023-09-08T00:55:28;12.00;;;9.50;;
12441;SDS011;6285;48.804;9.220;2023-09-08T00:57:57;11.70;;;9.45;;
12441;SDS011;6285;48.804;9.220;2023-09-08T01:00:24;14.25;;;10.45;;
12441;SDS011;6285;48.804;9.220;2023-09-08T01:02:52;12.02;;;9.32;;
12441;SDS011;6285;48.804;9.220;2023-09-08T01:05:19;11.65;;;9.23;;
12441;SDS011;6285;48.804;9.220;2023-09-08T01:07:46;10.95;;;9.57;;
12441;SDS011;6285;48.804;9.220;2023-09-08T01:10:14;14.77;;;10.13;;
12441;SDS011;6285;48.804;9.220;2023-09-08T01:12:41;12.02;;;9.98;;
12441;SDS011;6285;48.804;9.220;2023-09-08T01:15:10;10.50;;;8.95;;
12441;SDS011;6285;48.804;9.220;2023-09-08T01:17:37;11.73;;;9.73;;
12441;SDS011;6285;48.804;9.220;2023-09-08T01:20:04;11.85;;;9.50;;
12441;SDS011;6285;48.804;9.220;2023-09-08T01:22:41;12.10;;;9.43;;
12441;SDS011;6285;48.804;9.220;2023-09-08T01:25:22;12.23;;;10.20;;
12441;SDS011;6285;48.804;9.220;2023-09-08T01:27:50;10.23;;;9.18;;
12441;SDS011;6285;48.804;9.220;2023-09-08T01:30:17;11.85;;;9.90;;
12441;SDS011;6285;48.804;9.220;2023-09-08T01:32:45;12.35;;;9.65;;
12441;SDS011;6285;48.804;9.220;2023-09-08T01:35:13;10.82;;;9.30;;
12441;SDS011;6285;48.804;9.220;2023-09-08T01:37:40;11.65;;;8.90;;
12441;SDS011;6285;48.804;9.220;2023-09-08T01:40:08;10.57;;;9.48;;
12441;SDS011;6285;48.804;9.220;2023-09-08T01:42:37;11.45;;;9.10;;
12441;SDS011;6285;48.804;9.220;2023-09-08T01:45:04;11.77;;;9.32;;
12441;SDS011;6285;48.804;9.220;2023-09-08T01:47:32;10.30;;;9.18;;
12441;SDS011;6285;48.804;9.220;2023-09-08T01:49:59;9.98;;;8.63;;
12441;SDS011;6285;48.804;9.220;2023-09-08T01:52:26;11.05;;;9.05;;
12441;SDS011;6285;48.804;9.220;2023-09-08T01:54:53;11.45;;;9.10;;
12441;SDS011;6285;48.804;9.220;2023-09-08T01:57:21;10.20;;;9.10;;
12441;SDS011;6285;48.804;9.220;2023-09-08T01:59:49;9.90;;;8.90;;
12441;SDS011;6285;48.804;9.220;2023-09-08T02:02:16;14.00;;;10.00;;
12441;SDS011;6285;48.804;9.220;2023-09-08T02:04:43;9.98;;;8.98;;
12441;SDS011;6285;48.804;9.220;2023-09-08T02:07:10;12.07;;;9.82;;
12441;SDS011;6285;48.804;9.220;2023-09-08T02:09:37;12.10;;;9.10;;
12441;SDS011;6285;48.804;9.220;2023-09-08T02:12:05;13.05;;;9.52;;
12441;SDS011;6285;48.804;9.220;2023-09-08T02:14:32;10.48;;;9.40;;
12441;SDS011;6285;48.804;9.220;2023-09-08T02:17:00;10.73;;;9.38;;
12441;SDS011;6285;48.804;9.220;2023-09-08T02:19:28;11.82;;;9.43;;
12441;SDS011;6285;48.804;9.220;2023-09-08T02:21:55;10.98;;;9.88;;
12441;SDS011;6285;48.804;9.220;2023-09-08T02:24:22;11.85;;;9.60;;
12441;SDS011;6285;48.804;9.220;2023-09-08T02:26:49;12.40;;;9.30;;
12441;SDS011;6285;48.804;9.220;2023-09-08T02:29:16;13.95;;;9.80;;
12441;SDS011;6285;48.804;9.220;2023-09-08T02:31:43;10.60;;;9.50;;
12441;SDS011;6285;48.804;9.220;2023-09-08T02:34:12;11.00;;;9.90;;
12441;SDS011;6285;48.804;9.220;2023-09-08T02:36:39;11.95;;;9.82;;
12441;SDS011;6285;48.804;9.220;2023-09-08T02:39:06;12.23;;;9.65;;
12441;SDS011;6285;48.804;9.220;2023-09-08T02:41:33;12.20;;;9.32;;
12441;SDS011;6285;48.804;9.220;2023-09-08T02:44:01;15.75;;;9.77;;
12441;SDS011;6285;48.804;9.220;2023-09-08T02:46:28;13.45;;;9.65;;
12441;SDS011;6285;48.804;9.220;2023-09-08T02:48:55;12.38;;;9.60;;
12441;SDS011;6285;48.804;9.220;2023-09-08T02:51:24;11.20;;;9.25;;
12441;SDS011;6285;48.804;9.220;2023-09-08T02:53:51;12.13;;;9.13;;
12441;SDS011;6285;48.804;9.220;2023-09-08T02:56:18;14.68;;;9.90;;
12441;SDS011;6285;48.804;9.220;2023-09-08T02:58:45;16.20;;;9.07;;
12441;SDS011;6285;48.804;9.220;2023-09-08T03:01:12;11.25;;;9.27;;
12441;SDS011;6285;48.804;9.220;2023-09-08T03:03:40;12.73;;;9.50;;
12441;SDS011;6285;48.804;9.220;2023-09-08T03:06:07;13.95;;;9.70;;
12441;SDS011;6285;48.804;9.220;2023-09-08T03:08:36;13.82;;;9.55;;
12441;SDS011;6285;48.804;9.220;2023-09-08T03:11:03;13.68;;;9.68;;
12441;SDS011;6285;48.804;9.220;2023-09-08T03:13:31;10.65;;;9.35;;
12441;SDS011;6285;48.804;9.220;2023-09-08T03:16:01;12.65;;;10.23;;
12441;SDS011;6285;48.804;9.220;2023-09-08T03:18:29;12.25;;;10.50;;
12441;SDS011;6285;48.804;9.220;2023-09-08T03:20:57;11.88;;;9.85;;
12441;SDS011;6285;48.804;9.220;2023-09-08T03:23:25;11.70;;;9.30;;
12441;SDS011;6285;48.804;9.220;2023-09-08T03:25:54;10.75;;;9.27;;
12441;SDS011;6285;48.804;9.220;2023-09-08T03:28:21;12.68;;;9.50;;
12441;SDS011;6285;48.804;9.220;2023-09-08T03:30:48;10.90;;;9.80;;
12441;SDS011;6285;48.804;9.220;2023-09-08T03:33:15;13.00;;;10.15;;
12441;SDS011;6285;48.804;9.220;2023-09-08T03:35:42;13.07;;;9.50;;
12441;SDS011;6285;48.804;9.220;2023-09-08T03:38:10;11.55;;;9.27;;
12441;SDS011;6285;48.804;9.220;2023-09-08T03:40:37;11.57;;;10.25;;
12441;SDS011;6285;48.804;9.220;2023-09-08T03:43:05;10.82;;;9.73;;
12441;SDS011;6285;48.804;9.220;2023-09-08T03:45:32;11.32;;;10.07;;
12441;SDS011;6285;48.804;9.220;2023-09-08T03:47:59;13.05;;;9.70;;
12441;SDS011;6285;48.804;9.220;2023-09-08T03:50:26;11.52;;;10.02;;
12441;SDS011;6285;48.804;9.220;2023-09-08T03:52:53;11.48;;;10.27;;
12441;SDS011;6285;48.804;9.220;2023-09-08T03:55:21;11.13;;;9.50;;
12441;SDS011;6285;48.804;9.220;2023-09-08T03:57:48;10.85;;;9.75;;
12441;SDS011;6285;48.804;9.220;2023-09-08T04:00:16;10.93;;;9.55;;
12441;SDS011;6285;48.804;9.220;2023-09-08T04:02:46;10.82;;;9.73;;
12441;SDS011;6285;48.804;9.220;2023-09-08T04:05:14;12.25;;;9.93;;
12441;SDS011;6285;48.804;9.220;2023-09-08T04:07:41;12.70;;;9.85;;
12441;SDS011;6285;48.804;9.220;2023-09-08T04:10:08;12.57;;;9.75;;
12441;SDS011;6285;48.804;9.220;2023-09-08T04:12:35;12.43;;;10.23;;
12441;SDS011;6285;48.804;9.220;2023-09-08T04:15:02;11.82;;;10.00;;
12441;SDS011;6285;48.804;9.220;2023-09-08T04:17:31;11.07;;;9.38;;
12441;SDS011;6285;48.804;9.220;2023-09-08T04:19:58;13.50;;;10.43;;
12441;SDS011;6285;48.804;9.220;2023-09-08T04:22:25;13.05;;;10.20;;
12441;SDS011;6285;48.804;9.220;2023-09-08T04:24:52;14.15;;;10.25;;
12441;SDS011;6285;48.804;9.220;2023-09-08T04:27:21;13.75;;;10.20;;
12441;SDS011;6285;48.804;9.220;2023-09-08T04:29:48;10.82;;;9.73;;
12441;SDS011;6285;48.804;9.220;2023-09-08T04:32:15;11.68;;;10.15;;
12441;SDS011;6285;48.804;9.220;2023-09-08T04:34:43;11.93;;;10.60;;
12441;SDS011;6285;48.804;9.220;2023-09-08T04:37:10;11.70;;;9.95;;
12441;SDS011;6285;48.804;9.220;2023-09-08T04:39:39;16.15;;;10.82;;
12441;SDS011;6285;48.804;9.220;2023-09-08T04:42:06;14.60;;;10.55;;
12441;SDS011;6285;48.804;9.220;2023-09-08T04:44:33;15.00;;;10.48;;
12441;SDS011;6285;48.804;9.220;2023-09-08T04:47:00;11.90;;;10.43;;
12441;SDS011;6285;48.804;9.220;2023-09-08T04:49:27;12.43;;;10.18;;
12441;SDS011;6285;48.804;9.220;2023-09-08T04:51:56;12.55;;;11.07;;
12441;SDS011;6285;48.804;9.220;2023-09-08T04:54:23;18.33;;;11.25;;
12441;SDS011;6285;48.804;9.220;2023-09-08T04:56:52;14.27;;;10.52;;
12441;SDS011;6285;48.804;9.220;2023-09-08T04:59:19;13.13;;;10.27;;
12441;SDS011;6285;48.804;9.220;2023-09-08T05:01:47;12.52;;;10.80;;
12441;SDS011;6285;48.804;9.220;2023-09-08T05:04:15;13.15;;;10.63;;
12441;SDS011;6285;48.804;9.220;2023-09-08T05:06:42;16.17;;;10.73;;
12441;SDS011;6285;48.804;9.220;2023-09-08T05:09:10;13.40;;;10.27;;
12441;SDS011;6285;48.804;9.220;2023-09-08T05:11:37;13.32;;;10.60;;
12441;SDS011;6285;48.804;9.220;2023-09-08T05:14:04;14.93;;;10.50;;
12441;SDS011;6285;48.804;9.220;2023-09-08T05:16:31;14.77;;;10.50;;
12441;SDS011;6285;48.804;9.220;2023-09-08T05:19:10;11.60;;;10.40;;
12441;SDS011;6285;48.804;9.220;2023-09-08T05:21:38;14.43;;;10.02;;
12441;SDS011;6285;48.804;9.220;2023-09-08T05:24:06;14.77;;;10.30;;
12441;SDS011;6285;48.804;9.220;2023-09-08T05:26:36;17.63;;;10.93;;
12441;SDS011;6285;48.804;9.220;2023-09-08T05:29:04;12.98;;;10.13;;
12441;SDS011;6285;48.804;9.220;2023-09-08T05:31:31;11.85;;;9.80;;
12441;SDS011;6285;48.804;9.220;2023-09-08T05:33:59;12.55;;;9.98;;
12441;SDS011;6285;48.804;9.220;2023-09-08T05:36:26;11.90;;;9.55;;
12441;SDS011;6285;48.804;9.220;2023-09-08T05:38:54;12.98;;;9.85;;
12441;SDS011;6285;48.804;9.220;2023-09-08T05:41:21;13.48;;;10.13;;
12441;SDS011;6285;48.804;9.220;2023-09-08T05:43:49;15.15;;;10.52;;
12441;SDS011;6285;48.804;9.220;2023-09-08T05:46:16;14.00;;;10.38;;
12441;SDS011;6285;48.804;9.220;2023-09-08T05:48:47;18.35;;;10.50;;
12441;SDS011;6285;48.804;9.220;2023-09-08T05:51:17;14.23;;;11.20;;
12441;SDS011;6285;48.804;9.220;2023-09-08T05:53:44;15.23;;;10.88;;
12441;SDS011;6285;48.804;9.220;2023-09-08T05:56:11;19.75;;;10.95;;
12441;SDS011;6285;48.804;9.220;2023-09-08T05:58:38;19.20;;;11.23;;
12441;SDS011;6285;48.804;9.220;2023-09-08T06:01:07;18.00;;;11.30;;
12441;SDS011;6285;48.804;9.220;2023-09-08T06:03:36;14.93;;;11.10;;
12441;SDS011;6285;48.804;9.220;2023-09-08T06:06:03;16.85;;;11.18;;
12441;SDS011;6285;48.804;9.220;2023-09-08T06:08:31;15.73;;;11.38;;
12441;SDS011;6285;48.804;9.220;2023-09-08T06:10:58;17.30;;;12.13;;
12441;SDS011;6285;48.804;9.220;2023-09-08T06:13:25;16.95;;;11.38;;
12441;SDS011;6285;48.804;9.220;2023-09-08T06:15:52;16.30;;;10.88;;
12441;SDS011;6285;48.804;9.220;2023-09-08T06:18:20;13.70;;;11.23;;
12441;SDS011;6285;48.804;9.220;2023-09-08T06:20:49;16.08;;;11.98;;
12441;SDS011;6285;48.804;9.220;2023-09-08T06:23:19;14.13;;;11.50;;
12441;SDS011;6285;48.804;9.220;2023-09-08T06:25:46;14.75;;;11.70;;
12441;SDS011;6285;48.804;9.220;2023-09-08T06:28:14;15.18;;;11.05;;
12441;SDS011;6285;48.804;9.220;2023-09-08T06:30:41;13.90;;;10.13;;
12441;SDS011;6285;48.804;9.220;2023-09-08T06:33:08;15.50;;;10.18;;
12441;SDS011;6285;48.804;9.220;2023-09-08T06:35:37;11.25;;;9.57;;
12441;SDS011;6285;48.804;9.220;2023-09-08T06:38:04;12.65;;;10.20;;
12441;SDS011;6285;48.804;9.220;2023-09-08T06:40:31;11.73;;;8.52;;
12441;SDS011;6285;48.804;9.220;2023-09-08T06:42:58;9.60;;;8.60;;
12441;SDS011;6285;48.804;9.220;2023-09-08T06:45:25;10.80;;;8.52;;
12441;SDS011;6285;48.804;9.220;2023-09-08T06:47:52;11.80;;;9.10;;
12441;SDS011;6285;48.804;9.220;2023-09-08T06:50:20;11.25;;;8.07;;
12441;SDS011;6285;48.804;9.220;2023-09-08T06:52:49;11.65;;;9.35;;
12441;SDS011;6285;48.804;9.220;2023-09-08T06:55:16;10.50;;;8.05;;
12441;SDS011;6285;48.804;9.220;2023-09-08T06:57:44;9.57;;;8.18;;
12441;SDS011;6285;48.804;9.220;2023-09-08T07:00:11;8.73;;;7.82;;
12441;SDS011;6285;48.804;9.220;2023-09-08T07:02:39;8.32;;;7.53;;
12441;SDS011;6285;48.804;9.220;2023-09-08T07:05:06;12.98;;;9.18;;
12441;SDS011;6285;48.804;9.220;2023-09-08T07:07:36;10.50;;;8.50;;
12441;SDS011;6285;48.804;9.220;2023-09-08T07:10:16;11.57;;;7.90;;
12441;SDS011;6285;48.804;9.220;2023-09-08T07:12:43;11.73;;;8.90;;
12441;SDS011;6285;48.804;9.220;2023-09-08T07:15:12;11.27;;;9.15;;
12441;SDS011;6285;48.804;9.220;2023-09-08T07:17:42;13.05;;;9.18;;
12441;SDS011;6285;48.804;9.220;2023-09-08T07:20:09;10.20;;;8.10;;
12441;SDS011;6285;48.804;9.220;2023-09-08T07:22:37;11.43;;;8.77;;
12441;SDS011;6285;48.804;9.220;2023-09-08T07:25:04;9.80;;;8.52;;
12441;SDS011;6285;48.804;9.220;2023-09-08T07:27:33;11.68;;;8.00;;
12441;SDS011;6285;48.804;9.220;2023-09-08T07:30:00;12.77;;;8.35;;
12441;SDS011;6285;48.804;9.220;2023-09-08T07:32:27;9.52;;;8.23;;
12441;SDS011;6285;48.804;9.220;2023-09-08T07:34:54;11.07;;;8.15;;
12441;SDS011;6285;48.804;9.220;2023-09-08T07:37:21;9.63;;;8.05;;
12441;SDS011;6285;48.804;9.220;2023-09-08T07:39:49;11.63;;;7.32;;
12441;SDS011;6285;48.804;9.220;2023-09-08T07:42:16;10.50;;;8.30;;
12441;SDS011;6285;48.804;9.220;2023-09-08T07:44:45;11.43;;;8.10;;
12441;SDS011;6285;48.804;9.220;2023-09-08T07:47:12;12.70;;;8.65;;
12441;SDS011;6285;48.804;9.220;2023-09-08T07:49:39;11.00;;;8.15;;
12441;SDS011;6285;48.804;9.220;2023-09-08T07:52:06;13.27;;;8.52;;
12441;SDS011;6285;48.804;9.220;2023-09-08T07:54:33;8.95;;;7.75;;
12441;SDS011;6285;48.804;9.220;2023-09-08T07:57:00;9.65;;;8.55;;
12441;SDS011;6285;48.804;9.220;2023-09-08T07:59:27;10.48;;;8.10;;
12441;SDS011;6285;48.804;9.220;2023-09-08T08:01:55;9.38;;;8.25;;
12441;SDS011;6285;48.804;9.220;2023-09-08T08:04:22;9.45;;;8.48;;
12441;SDS011;6285;48.804;9.220;2023-09-08T08:06:49;14.43;;;8.43;;
12441;SDS011;6285;48.804;9.220;2023-09-08T08:09:16;11.90;;;7.90;;
12441;SDS011;6285;48.804;9.220;2023-09-08T08:11:44;9.52;;;8.20;;
12441;SDS011;6285;48.804;9.220;2023-09-08T08:14:11;13.32;;;8.43;;
12441;SDS011;6285;48.804;9.220;2023-09-08T08:16:39;8.88;;;7.95;;
12441;SDS011;6285;48.804;9.220;2023-09-08T08:19:07;11.98;;;8.43;;
12441;SDS011;6285;48.804;9.220;2023-09-08T08:21:34;10.60;;;7.72;;
12441;SDS011;6285;48.804;9.220;2023-09-08T08:24:02;9.23;;;8.07;;
12441;SDS011;6285;48.804;9.220;2023-09-08T08:26:30;12.00;;;7.90;;
12441;SDS011;6285;48.804;9.220;2023-09-08T08:28:58;10.25;;;7.55;;
12441;SDS011;6285;48.804;9.220;2023-09-08T08:31:25;9.93;;;7.78;;
12441;SDS011;6285;48.804;9.220;2023-09-08T08:33:52;8.52;;;7.78;;
12441;SDS011;6285;48.804;9.220;2023-09-08T08:36:20;10.05;;;7.35;;
12441;SDS011;6285;48.804;9.220;2023-09-08T08:38:47;8.50;;;7.57;;
12441;SDS011;6285;48.804;9.220;2023-09-08T08:41:14;8.52;;;7.32;;
12441;SDS011;6285;48.804;9.220;2023-09-08T08:43:42;10.70;;;6.88;;
12441;SDS011;6285;48.804;9.220;2023-09-08T08:46:10;8.07;;;6.95;;
12441;SDS011;6285;48.804;9.220;2023-09-08T08:48:39;8.40;;;6.85;;
12441;SDS011;6285;48.804;9.220;2023-09-08T08:51:07;9.48;;;7.13;;
12441;SDS011;6285;48.804;9.220;2023-09-08T08:53:37;9.15;;;7.28;;
12441;SDS011;6285;48.804;9.220;2023-09-08T08:56:05;7.50;;;6.68;;
12441;SDS011;6285;48.804;9.220;2023-09-08T08:58:33;9.38;;;6.82;;
12441;SDS011;6285;48.804;9.220;2023-09-08T09:01:03;12.77;;;7.20;;
12441;SDS011;6285;48.804;9.220;2023-09-08T09:03:30;7.90;;;7.10;;
12441;SDS011;6285;48.804;9.220;2023-09-08T09:05:59;9.60;;;7.30;;
12441;SDS011;6285;48.804;9.220;2023-09-08T09:08:26;8.65;;;6.80;;
12441;SDS011;6285;48.804;9.220;2023-09-08T09:10:56;7.72;;;6.80;;
12441;SDS011;6285;48.804;9.220;2023-09-08T09:13:23;8.73;;;7.40;;
12441;SDS011;6285;48.804;9.220;2023-09-08T09:15:50;8.35;;;6.78;;
12441;SDS011;6285;48.804;9.220;2023-09-08T09:18:17;7.05;;;6.35;;
12441;SDS011;6285;48.804;9.220;2023-09-08T09:20:52;7.70;;;6.00;;
12441;SDS011;6285;48.804;9.220;2023-09-08T09:23:26;9.60;;;6.20;;
12441;SDS011;6285;48.804;9.220;2023-09-08T09:25:55;9.68;;;6.22;;
12441;SDS011;6285;48.804;9.220;2023-09-08T09:28:23;7.60;;;6.28;;
12441;SDS011;6285;48.804;9.220;2023-09-08T09:30:50;8.18;;;6.32;;
12441;SDS011;6285;48.804;9.220;2023-09-08T09:33:19;9.82;;;6.05;;
12441;SDS011;6285;48.804;9.220;2023-09-08T09:35:47;7.75;;;5.22;;
12441;SDS011;6285;48.804;9.220;2023-09-08T09:38:16;6.03;;;5.40;;
12441;SDS011;6285;48.804;9.220;2023-09-08T09:40:43;7.22;;;5.70;;
12441;SDS011;6285;48.804;9.220;2023-09-08T09:43:12;7.13;;;5.50;;
12441;SDS011;6285;48.804;9.220;2023-09-08T09:45:41;6.40;;;5.70;;
12441;SDS011;6285;48.804;9.220;2023-09-08T09:48:08;5.72;;;4.95;;
12441;SDS011;6285;48.804;9.220;2023-09-08T09:50:36;8.20;;;5.80;;
12441;SDS011;6285;48.804;9.220;2023-09-08T09:53:07;12.13;;;5.90;;
12441;SDS011;6285;48.804;9.220;2023-09-08T09:55:36;6.10;;;5.30;;
12441;SDS011;6285;48.804;9.220;2023-09-08T09:58:03;5.30;;;4.90;;
12441;SDS011;6285;48.804;9.220;2023-09-08T10:00:33;6.15;;;5.63;;
12441;SDS011;6285;48.804;9.220;2023-09-08T10:03:02;5.90;;;5.43;;
12441;SDS011;6285;48.804;9.220;2023-09-08T10:05:30;5.68;;;5.18;;
12441;SDS011;6285;48.804;9.220;2023-09-08T10:07:58;6.85;;;5.47;;
12441;SDS011;6285;48.804;9.220;2023-09-08T10:10:26;6.72;;;5.68;;
12441;SDS011;6285;48.804;9.220;2023-09-08T10:12:54;6.93;;;5.50;;
12441;SDS011;6285;48.804;9.220;2023-09-08T10:15:23;6.85;;;4.68;;
12441;SDS011;6285;48.804;9.220;2023-09-08T10:17:54;5.57;;;5.07;;
12441;SDS011;6285;48.804;9.220;2023-09-08T10:20:22;5.85;;;5.05;;
12441;SDS011;6285;48.804;9.220;2023-09-08T10:22:52;5.70;;;5.20;;
12441;SDS011;6285;48.804;9.220;2023-09-08T10:25:21;6.28;;;5.20;;
12441;SDS011;6285;48.804;9.220;2023-09-08T10:27:50;5.20;;;4.80;;
12441;SDS011;6285;48.804;9.220;2023-09-08T10:30:17;7.38;;;6.18;;
12441;SDS011;6285;48.804;9.220;2023-09-08T10:32:46;7.00;;;5.55;;
12441;SDS011;6285;48.804;9.220;2023-09-08T10:35:17;6.03;;;5.43;;
12441;SDS011;6285;48.804;9.220;2023-09-08T10:37:44;7.70;;;5.60;;
12441;SDS011;6285;48.804;9.220;2023-09-08T10:43:07;5.90;;;5.30;;
12441;SDS011;6285;48.804;9.220;2023-09-08T10:45:34;5.95;;;5.40;;
12441;SDS011;6285;48.804;9.220;2023-09-08T10:48:02;5.93;;;4.78;;
12441;SDS011;6285;48.804;9.220;2023-09-08T10:50:31;5.53;;;5.03;;
12441;SDS011;6285;48.804;9.220;2023-09-08T10:53:10;6.45;;;5.85;;
12441;SDS011;6285;48.804;9.220;2023-09-08T10:55:43;5.55;;;5.03;;
12441;SDS011;6285;48.804;9.220;2023-09-08T10:58:19;5.55;;;5.00;;
12441;SDS011;6285;48.804;9.220;2023-09-08T11:00:47;5.78;;;5.28;;
12441;SDS011;6285;48.804;9.220;2023-09-08T11:03:25;6.55;;;5.25;;
12441;SDS011;6285;48.804;9.220;2023-09-08T11:05:55;7.45;;;5.50;;
12441;SDS011;6285;48.804;9.220;2023-09-08T11:08:23;5.65;;;5.13;;
12441;SDS011;6285;48.804;9.220;2023-09-08T11:10:50;6.15;;;5.55;;
12441;SDS011;6285;48.804;9.220;2023-09-08T11:13:17;8.23;;;7.47;;
12441;SDS011;6285;48.804;9.220;2023-09-08T11:15:44;6.93;;;6.28;;
12441;SDS011;6285;48.804;9.220;2023-09-08T11:18:11;5.45;;;4.95;;
12441;SDS011;6285;48.804;9.220;2023-09-08T11:20:38;8.50;;;5.57;;
12441;SDS011;6285;48.804;9.220;2023-09-08T11:23:06;8.55;;;7.72;;
12441;SDS011;6285;48.804;9.220;2023-09-08T11:25:33;8.90;;;7.82;;
12441;SDS011;6285;48.804;9.220;2023-09-08T11:28:00;7.88;;;6.30;;
12441;SDS011;6285;48.804;9.220;2023-09-08T11:30:28;6.95;;;6.25;;
12441;SDS011;6285;48.804;9.220;2023-09-08T11:32:55;8.45;;;5.95;;
12441;SDS011;6285;48.804;9.220;2023-09-08T11:35:25;8.55;;;6.20;;
12441;SDS011;6285;48.804;9.220;2023-09-08T11:37:53;7.45;;;5.90;;
12441;SDS011;6285;48.804;9.220;2023-09-08T11:40:22;7.13;;;5.70;;
12441;SDS011;6285;48.804;9.220;2023-09-08T11:42:50;7.75;;;6.25;;
12441;SDS011;6285;48.804;9.220;2023-09-08T11:45:17;9.95;;;6.30;;
12441;SDS011;6285;48.804;9.220;2023-09-08T11:47:46;6.72;;;5.55;;
12441;SDS011;6285;48.804;9.220;2023-09-08T11:50:14;6.63;;;6.05;;
12441;SDS011;6285;48.804;9.220;2023-09-08T11:52:43;7.10;;;5.80;;
12441;SDS011;6285;48.804;9.220;2023-09-08T11:55:10;7.70;;;5.97;;
12441;SDS011;6285;48.804;9.220;2023-09-08T11:57:39;5.82;;;5.30;;
12441;SDS011;6285;48.804;9.220;2023-09-08T12:00:07;7.82;;;5.40;;
12441;SDS011;6285;48.804;9.220;2023-09-08T12:02:39;6.68;;;5.90;;
12441;SDS011;6285;48.804;9.220;2023-09-08T12:05:10;7.15;;;5.43;;
12441;SDS011;6285;48.804;9.220;2023-09-08T12:07:38;6.80;;;5.40;;
12441;SDS011;6285;48.804;9.220;2023-09-08T12:10:09;6.95;;;6.28;;
12441;SDS011;6285;48.804;9.220;2023-09-08T12:12:45;6.40;;;5.80;;
12441;SDS011;6285;48.804;9.220;2023-09-08T12:17:58;6.65;;;6.05;;
12441;SDS011;6285;48.804;9.220;2023-09-08T12:20:25;7.63;;;6.15;;
12441;SDS011;6285;48.804;9.220;2023-09-08T12:22:53;7.30;;;6.00;;
12441;SDS011;6285;48.804;9.220;2023-09-08T12:25:20;7.20;;;6.03;;
12441;SDS011;6285;48.804;9.220;2023-09-08T12:27:50;7.65;;;5.65;;
12441;SDS011;6285;48.804;9.220;2023-09-08T12:30:17;6.05;;;5.45;;
12441;SDS011;6285;48.804;9.220;2023-09-08T12:32:46;7.90;;;6.80;;
12441;SDS011;6285;48.804;9.220;2023-09-08T12:35:19;7.10;;;6.40;;
12441;SDS011;6285;48.804;9.220;2023-09-08T12:37:47;6.53;;;5.93;;
12441;SDS011;6285;48.804;9.220;2023-09-08T12:40:15;8.60;;;6.57;;
12441;SDS011;6285;48.804;9.220;2023-09-08T12:42:42;6.78;;;6.00;;
12441;SDS011;6285;48.804;9.220;2023-09-08T12:45:11;7.57;;;6.38;;
12441;SDS011;6285;48.804;9.220;2023-09-08T12:47:38;6.28;;;5.68;;
12441;SDS011;6285;48.804;9.220;2023-09-08T12:50:05;7.30;;;6.60;;
12441;SDS011;6285;48.804;9.220;2023-09-08T12:52:33;8.25;;;5.72;;
12441;SDS011;6285;48.804;9.220;2023-09-08T12:55:01;5.88;;;5.25;;
12441;SDS011;6285;48.804;9.220;2023-09-08T12:57:28;7.03;;;5.65;;
12441;SDS011;6285;48.804;9.220;2023-09-08T12:59:55;6.47;;;5.85;;
12441;SDS011;6285;48.804;9.220;2023-09-08T13:02:24;6.93;;;6.10;;
12441;SDS011;6285;48.804;9.220;2023-09-08T13:04:51;6.82;;;5.97;;
12441;SDS011;6285;48.804;9.220;2023-09-08T13:07:19;8.55;;;6.20;;
12441;SDS011;6285;48.804;9.220;2023-09-08T13:09:46;7.18;;;5.80;;
12441;SDS011;6285;48.804;9.220;2023-09-08T13:12:14;6.22;;;5.65;;
12441;SDS011;6285;48.804;9.220;2023-09-08T13:14:41;7.03;;;5.80;;
12441;SDS011;6285;48.804;9.220;2023-09-08T13:17:08;8.65;;;6.20;;
12441;SDS011;6285;48.804;9.220;2023-09-08T13:19:37;8.18;;;6.20;;
12441;SDS011;6285;48.804;9.220;2023-09-08T13:22:04;6.15;;;5.60;;
12441;SDS011;6285;48.804;9.220;2023-09-08T13:24:31;6.82;;;5.70;;
12441;SDS011;6285;48.804;9.220;2023-09-08T13:26:59;6.97;;;6.28;;
12441;SDS011;6285;48.804;9.220;2023-09-08T13:29:26;6.45;;;5.85;;
12441;SDS011;6285;48.804;9.220;2023-09-08T13:31:54;6.95;;;6.13;;
12441;SDS011;6285;48.804;9.220;2023-09-08T13:34:22;5.80;;;5.30;;
12441;SDS011;6285;48.804;9.220;2023-09-08T13:36:51;7.47;;;6.07;;
12441;SDS011;6285;48.804;9.220;2023-09-08T13:39:18;6.10;;;5.18;;
12441;SDS011;6285;48.804;9.220;2023-09-08T13:41:46;6.95;;;6.25;;
12441;SDS011;6285;48.804;9.220;2023-09-08T13:44:13;6.38;;;5.68;;
12441;SDS011;6285;48.804;9.220;2023-09-08T13:46:41;6.25;;;5.03;;
12441;SDS011;6285;48.804;9.220;2023-09-08T13:49:08;6.13;;;5.53;;
12441;SDS011;6285;48.804;9.220;2023-09-08T13:51:35;6.40;;;5.25;;
12441;SDS011;6285;48.804;9.220;2023-09-08T13:54:04;6.00;;;5.35;;
12441;SDS011;6285;48.804;9.220;2023-09-08T13:56:31;5.93;;;5.32;;
12441;SDS011;6285;48.804;9.220;2023-09-08T13:58:58;9.27;;;6.20;;
12441;SDS011;6285;48.804;9.220;2023-09-08T14:01:25;6.13;;;5.13;;
12441;SDS011;6285;48.804;9.220;2023-09-08T14:03:54;6.13;;;5.53;;
12441;SDS011;6285;48.804;9.220;2023-09-08T14:06:21;5.85;;;5.35;;
12441;SDS011;6285;48.804;9.220;2023-09-08T14:08:49;5.75;;;5.10;;
12441;SDS011;6285;48.804;9.220;2023-09-08T14:11:17;6.00;;;5.43;;
12441;SDS011;6285;48.804;9.220;2023-09-08T14:13:44;6.90;;;5.40;;
12441;SDS011;6285;48.804;9.220;2023-09-08T14:16:12;5.05;;;4.63;;
12441;SDS011;6285;48.804;9.220;2023-09-08T14:18:39;6.78;;;4.88;;
12441;SDS011;6285;48.804;9.220;2023-09-08T14:21:06;6.07;;;5.32;;
12441;SDS011;6285;48.804;9.220;2023-09-08T14:23:33;5.28;;;4.78;;
12441;SDS011;6285;48.804;9.220;2023-09-08T14:26:02;5.40;;;4.90;;
12441;SDS011;6285;48.804;9.220;2023-09-08T14:28:31;8.07;;;5.45;;
12441;SDS011;6285;48.804;9.220;2023-09-08T14:30:58;5.72;;;5.22;;
12441;SDS011;6285;48.804;9.220;2023-09-08T14:33:26;5.75;;;5.15;;
12441;SDS011;6285;48.804;9.220;2023-09-08T14:35:53;5.95;;;5.45;;
12441;SDS011;6285;48.804;9.220;2023-09-08T14:38:21;6.95;;;5.05;;
12441;SDS011;6285;48.804;9.220;2023-09-08T14:40:55;7.60;;;5.20;;
12441;SDS011;6285;48.804;9.220;2023-09-08T14:43:22;6.53;;;5.15;;
12441;SDS011;6285;48.804;9.220;2023-09-08T14:45:51;6.57;;;5.43;;
12441;SDS011;6285;48.804;9.220;2023-09-08T14:48:18;5.15;;;4.65;;
12441;SDS011;6285;48.804;9.220;2023-09-08T14:50:45;5.43;;;4.93;;
12441;SDS011;6285;48.804;9.220;2023-09-08T14:53:13;5.78;;;5.18;;
12441;SDS011;6285;48.804;9.220;2023-09-08T14:55:40;6.28;;;5.68;;
12441;SDS011;6285;48.804;9.220;2023-09-08T14:58:09;5.78;;;5.07;;
12441;SDS011;6285;48.804;9.220;2023-09-08T15:00:37;5.85;;;5.25;;
12441;SDS011;6285;48.804;9.220;2023-09-08T15:03:06;5.82;;;5.18;;